Time;durP1;ratioP1;P1;durP2;ratioP2;P2;SDS_P1;SDS_P2;PMS_P1;PMS_P2;Temp;Humidity;BMP_temperature;BMP_pressure;BME280_temperature;BME280_humidity;BME280_pressure;Samples;Min_cycle;Max_cycle;Signal;HPM_P1;HPM_P2
2022/01/31 00:00:18;;;;;;;23.63;3.60;;;;;;;;;;5051077;28;20053;-67
2022/01/31 00:02:46;;;;;;;25.27;4.57;;;;;;;;;;5052341;28;20033;-67
2022/01/31 00:05:12;;;;;;;21.90;4.00;;;;;;;;;;5051478;28;20065;-67
2022/01/31 00:07:38;;;;;;;26.38;5.13;;;;;;;;;;5051148;28;20052;-67
2022/01/31 00:10:08;;;;;;;21.08;4.78;;;;;;;;;;5051010;28;20052;-67
2022/01/31 00:12:44;;;;;;;19.15;4.95;;;;;;;;;;5051277;28;20151;-67
2022/01/31 00:15:11;;;;;;;22.38;4.97;;;;;;;;;;5050504;28;20052;-67
2022/01/31 00:17:37;;;;;;;21.30;4.55;;;;;;;;;;5050718;28;20138;-67
2022/01/31 00:20:03;;;;;;;26.73;5.00;;;;;;;;;;5051297;28;20419;-67
2022/01/31 00:22:29;;;;;;;20.50;4.32;;;;;;;;;;5050304;28;20037;-67
2022/01/31 00:24:55;;;;;;;22.15;5.30;;;;;;;;;;5051763;28;20505;-67
2022/01/31 00:27:21;;;;;;;21.13;5.28;;;;;;;;;;5068240;28;20057;-67
2022/01/31 00:29:47;;;;;;;27.85;5.13;;;;;;;;;;5103898;28;20052;-67
2022/01/31 00:32:13;;;;;;;27.65;5.13;;;;;;;;;;5071691;28;20101;-67
2022/01/31 00:34:39;;;;;;;18.38;5.40;;;;;;;;;;5070751;28;20123;-67
2022/01/31 00:37:05;;;;;;;22.13;5.47;;;;;;;;;;5071563;28;20115;-67
2022/01/31 00:39:34;;;;;;;19.85;6.00;;;;;;;;;;5071562;28;20042;-67
2022/01/31 00:42:02;;;;;;;26.50;6.53;;;;;;;;;;5070681;28;20047;-67
2022/01/31 00:44:39;;;;;;;23.38;6.65;;;;;;;;;;5103484;28;20410;-67
2022/01/31 00:47:16;;;;;;;19.77;5.25;;;;;;;;;;5071449;28;20510;-67
2022/01/31 00:49:49;;;;;;;17.98;5.10;;;;;;;;;;5103219;28;20352;-67
2022/01/31 00:52:15;;;;;;;20.98;6.05;;;;;;;;;;5071104;28;20106;-67
2022/01/31 00:54:41;;;;;;;23.27;6.45;;;;;;;;;;5070984;28;20041;-67
2022/01/31 00:57:07;;;;;;;20.70;6.45;;;;;;;;;;5070593;28;20044;-67
2022/01/31 00:59:33;;;;;;;22.52;6.30;;;;;;;;;;5071186;28;20166;-67
2022/01/31 01:01:59;;;;;;;23.40;6.95;;;;;;;;;;5071120;28;20471;-67
2022/01/31 01:04:25;;;;;;;21.08;6.45;;;;;;;;;;5070257;28;20036;-67
2022/01/31 01:06:51;;;;;;;25.80;7.53;;;;;;;;;;5071004;28;20275;-67
2022/01/31 01:09:17;;;;;;;18.73;5.93;;;;;;;;;;5070867;28;20044;-67
2022/01/31 01:11:43;;;;;;;21.02;6.88;;;;;;;;;;5070396;28;20534;-67
2022/01/31 01:14:09;;;;;;;20.25;7.13;;;;;;;;;;5070757;28;20040;-67
2022/01/31 01:16:35;;;;;;;23.33;7.55;;;;;;;;;;5070963;28;20039;-67
2022/01/31 01:19:02;;;;;;;19.25;7.43;;;;;;;;;;5070164;28;20090;-67
2022/01/31 01:21:27;;;;;;;20.17;7.47;;;;;;;;;;5103098;28;20070;-67
2022/01/31 01:23:53;;;;;;;19.40;7.88;;;;;;;;;;5070683;28;20037;-67
2022/01/31 01:26:19;;;;;;;20.85;8.40;;;;;;;;;;5069646;28;20052;-67
2022/01/31 01:28:46;;;;;;;24.77;8.73;;;;;;;;;;5069095;28;20075;-67
2022/01/31 01:31:12;;;;;;;23.48;8.73;;;;;;;;;;5070658;28;20449;-67
2022/01/31 01:33:40;;;;;;;28.50;9.68;;;;;;;;;;5068045;28;20429;-67
2022/01/31 01:36:07;;;;;;;33.47;9.80;;;;;;;;;;5070670;28;20091;-67
2022/01/31 01:38:33;;;;;;;27.55;9.98;;;;;;;;;;5070494;28;20495;-67
2022/01/31 01:41:00;;;;;;;26.65;9.70;;;;;;;;;;5069685;28;20368;-67
2022/01/31 01:43:27;;;;;;;29.10;11.15;;;;;;;;;;5069147;28;20086;-67
2022/01/31 01:45:54;;;;;;;27.50;10.50;;;;;;;;;;5070187;28;20078;-67
2022/01/31 01:48:21;;;;;;;30.25;10.65;;;;;;;;;;5069649;28;20123;-67
2022/01/31 01:50:47;;;;;;;27.25;10.00;;;;;;;;;;5070450;28;20328;-67
2022/01/31 01:53:13;;;;;;;26.85;11.13;;;;;;;;;;5070223;28;20044;-67
2022/01/31 01:55:39;;;;;;;21.77;10.30;;;;;;;;;;5068778;28;20441;-67
2022/01/31 01:58:12;;;;;;;25.50;11.25;;;;;;;;;;5070543;28;20124;-67
2022/01/31 02:01:12;;;;;;;20.90;10.85;;;;;;;;;;5070531;28;20486;-67
2022/01/31 02:03:32;;;;;;;18.90;10.73;;;;;;;;;;5066002;28;20107;-67
2022/01/31 02:05:59;;;;;;;21.13;11.40;;;;;;;;;;5070446;28;20123;-67
2022/01/31 02:08:27;;;;;;;19.48;11.23;;;;;;;;;;5069765;28;20032;-67
2022/01/31 02:10:53;;;;;;;22.65;12.55;;;;;;;;;;5069500;28;20083;-67
2022/01/31 02:13:19;;;;;;;24.33;11.85;;;;;;;;;;5070010;28;20043;-67
2022/01/31 02:15:49;;;;;;;21.00;11.90;;;;;;;;;;5070033;28;20044;-67
2022/01/31 02:18:16;;;;;;;20.08;11.07;;;;;;;;;;5069460;28;20044;-67
2022/01/31 02:20:42;;;;;;;20.15;11.45;;;;;;;;;;5068481;28;20079;-67
2022/01/31 02:23:09;;;;;;;21.52;11.80;;;;;;;;;;5069675;28;20462;-67
2022/01/31 02:25:50;;;;;;;19.50;11.77;;;;;;;;;;5068900;28;20098;-67
2022/01/31 02:28:16;;;;;;;21.10;11.55;;;;;;;;;;5070011;28;20043;-67
2022/01/31 02:30:42;;;;;;;29.02;12.00;;;;;;;;;;5069571;28;20480;-67
2022/01/31 02:33:09;;;;;;;17.40;10.25;;;;;;;;;;5069091;28;20545;-67
2022/01/31 02:35:35;;;;;;;26.20;11.32;;;;;;;;;;5069720;28;20044;-67
2022/01/31 02:38:02;;;;;;;28.25;11.07;;;;;;;;;;5069734;28;20390;-67
2022/01/31 02:40:28;;;;;;;19.17;10.05;;;;;;;;;;5068967;28;20036;-67
2022/01/31 02:42:54;;;;;;;20.55;9.52;;;;;;;;;;5069752;28;20475;-67
2022/01/31 02:45:20;;;;;;;18.13;7.88;;;;;;;;;;5069706;28;20048;-67
2022/01/31 02:47:53;;;;;;;16.52;8.63;;;;;;;;;;5101502;28;20048;-67
2022/01/31 02:50:18;;;;;;;;;;;;;;;;;;5070210;28;20542;-67
2022/01/31 02:52:48;;;;;;;18.33;7.28;;;;;;;;;;5069637;28;19916;-67
2022/01/31 02:55:15;;;;;;;14.40;7.38;;;;;;;;;;5101258;28;20118;-67
2022/01/31 02:57:41;;;;;;;11.23;6.40;;;;;;;;;;5069738;28;20386;-67
2022/01/31 03:00:07;;;;;;;9.23;6.20;;;;;;;;;;5069883;28;20033;-67
2022/01/31 03:02:33;;;;;;;11.48;6.57;;;;;;;;;;5069081;28;20131;-67
2022/01/31 03:04:59;;;;;;;10.13;7.00;;;;;;;;;;5069457;28;20120;-67
2022/01/31 03:07:25;;;;;;;12.60;6.65;;;;;;;;;;5105844;28;20048;-67
2022/01/31 03:09:52;;;;;;;10.13;6.50;;;;;;;;;;5072240;28;20048;-67
2022/01/31 03:12:18;;;;;;;12.15;6.63;;;;;;;;;;5072949;28;20123;-67
2022/01/31 03:14:44;;;;;;;13.95;6.47;;;;;;;;;;5072897;28;20498;-67
2022/01/31 03:17:10;;;;;;;13.45;6.47;;;;;;;;;;5105123;28;20051;-67
2022/01/31 03:19:42;;;;;;;14.68;6.80;;;;;;;;;;5073123;28;20036;-67
2022/01/31 03:22:08;;;;;;;13.00;5.75;;;;;;;;;;5072607;28;20056;-67
2022/01/31 03:24:34;;;;;;;16.08;6.63;;;;;;;;;;5072343;28;20041;-67
2022/01/31 03:27:01;;;;;;;14.82;7.38;;;;;;;;;;5088915;28;20111;-67
2022/01/31 03:29:27;;;;;;;15.65;7.53;;;;;;;;;;5052909;28;20045;-67
2022/01/31 03:31:53;;;;;;;12.75;7.65;;;;;;;;;;5052219;28;20059;-67
2022/01/31 03:34:19;;;;;;;20.52;8.30;;;;;;;;;;5052482;28;20506;-67
2022/01/31 03:36:45;;;;;;;17.27;6.93;;;;;;;;;;5052726;28;20044;-68
2022/01/31 03:39:11;;;;;;;13.48;7.07;;;;;;;;;;5051828;28;20511;-68
2022/01/31 03:41:38;;;;;;;20.30;6.95;;;;;;;;;;5051330;28;20102;-68
2022/01/31 03:44:04;;;;;;;23.05;7.53;;;;;;;;;;5052662;28;20569;-68
2022/01/31 03:46:33;;;;;;;19.73;7.47;;;;;;;;;;5052034;28;20041;-68
2022/01/31 03:48:59;;;;;;;21.17;6.80;;;;;;;;;;5051098;28;20162;-68
2022/01/31 03:51:25;;;;;;;24.45;6.93;;;;;;;;;;5052648;28;20116;-68
2022/01/31 03:53:51;;;;;;;24.83;7.28;;;;;;;;;;5051568;28;20048;-68
2022/01/31 03:56:17;;;;;;;21.42;5.68;;;;;;;;;;5051032;28;20810;-68
2022/01/31 03:58:43;;;;;;;23.08;5.93;;;;;;;;;;5052047;28;20116;-68
2022/01/31 04:01:09;;;;;;;22.00;4.65;;;;;;;;;;5050150;28;20045;-67
2022/01/31 04:03:35;;;;;;;22.58;3.85;;;;;;;;;;5050599;28;20087;-67
2022/01/31 04:06:01;;;;;;;28.55;4.85;;;;;;;;;;5050637;28;20048;-67
2022/01/31 04:08:27;;;;;;;30.25;5.05;;;;;;;;;;5051591;28;20678;-67
2022/01/31 04:10:53;;;;;;;22.25;4.15;;;;;;;;;;5052224;28;20119;-67
2022/01/31 04:13:19;;;;;;;20.80;3.80;;;;;;;;;;5051808;28;20033;-67
2022/01/31 04:15:45;;;;;;;23.77;5.07;;;;;;;;;;5051243;28;20045;-67
2022/01/31 04:18:12;;;;;;;29.08;4.30;;;;;;;;;;5051096;28;20037;-67
2022/01/31 04:20:38;;;;;;;25.60;3.55;;;;;;;;;;5052013;28;20570;-67
2022/01/31 04:23:17;;;;;;;23.55;4.32;;;;;;;;;;5049885;28;20037;-67
2022/01/31 04:28:25;;;;;;;17.17;3.15;;;;;;;;;;5071799;28;20090;-67
2022/01/31 04:31:23;;;;;;;26.58;3.95;;;;;;;;;;5071075;28;20055;-67
2022/01/31 04:33:39;;;;;;;15.05;3.28;;;;;;;;;;5069604;28;20049;-67
2022/01/31 04:36:06;;;;;;;21.35;3.10;;;;;;;;;;5071767;28;20036;-67
2022/01/31 04:38:33;;;;;;;20.88;3.08;;;;;;;;;;5103591;28;20075;-67
2022/01/31 04:40:59;;;;;;;15.98;2.80;;;;;;;;;;5071590;28;20502;-67
2022/01/31 04:43:25;;;;;;;17.70;2.80;;;;;;;;;;5071599;28;20040;-67
2022/01/31 04:45:53;;;;;;;23.75;3.50;;;;;;;;;;5070490;28;20045;-67
2022/01/31 04:48:20;;;;;;;26.27;2.92;;;;;;;;;;5071357;28;20230;-67
2022/01/31 04:50:47;;;;;;;27.23;3.67;;;;;;;;;;5071061;28;20060;-67
2022/01/31 04:53:13;;;;;;;19.95;3.28;;;;;;;;;;5070537;28;20051;-67
2022/01/31 04:55:40;;;;;;;16.73;2.53;;;;;;;;;;5103447;28;20049;-67
2022/01/31 04:58:06;;;;;;;26.27;3.38;;;;;;;;;;5071096;28;20117;-67
2022/01/31 05:00:33;;;;;;;22.83;3.78;;;;;;;;;;5070932;28;20585;-67
2022/01/31 05:02:58;;;;;;;18.17;3.22;;;;;;;;;;5071191;28;20170;-67
2022/01/31 05:05:24;;;;;;;22.42;3.00;;;;;;;;;;5071031;28;20123;-67
2022/01/31 05:07:53;;;;;;;21.30;3.58;;;;;;;;;;5070790;28;20043;-67
2022/01/31 05:10:19;;;;;;;23.48;2.72;;;;;;;;;;5070916;28;20048;-67
2022/01/31 05:12:45;;;;;;;21.58;2.72;;;;;;;;;;5103523;28;20381;-67
2022/01/31 05:15:11;;;;;;;19.95;2.50;;;;;;;;;;5085440;28;20053;-67
2022/01/31 05:17:37;;;;;;;24.35;3.58;;;;;;;;;;5070991;28;20487;-67
2022/01/31 05:20:04;;;;;;;23.05;3.13;;;;;;;;;;5070786;28;20036;-67
2022/01/31 05:22:30;;;;;;;17.85;3.17;;;;;;;;;;5070117;28;20507;-67
2022/01/31 05:24:56;;;;;;;22.60;2.88;;;;;;;;;;5103041;28;20123;-67
2022/01/31 05:27:22;;;;;;;21.80;3.75;;;;;;;;;;5051388;28;20084;-67
2022/01/31 05:29:48;;;;;;;13.75;1.38;;;;;;;;;;5049807;28;20075;-67
2022/01/31 05:32:14;;;;;;;4.15;0.75;;;;;;;;;;5082864;28;20472;-67
2022/01/31 05:34:40;;;;;;;5.50;0.73;;;;;;;;;;5050129;28;20045;-67
2022/01/31 05:37:06;;;;;;;4.63;0.90;;;;;;;;;;5049637;28;20044;-67
2022/01/31 05:39:32;;;;;;;7.70;0.90;;;;;;;;;;5050365;28;20103;-67
2022/01/31 05:41:59;;;;;;;4.45;1.00;;;;;;;;;;5050492;28;20032;-67
2022/01/31 05:44:26;;;;;;;5.32;1.00;;;;;;;;;;5049780;28;20403;-67
2022/01/31 05:46:52;;;;;;;2.88;0.60;;;;;;;;;;5048990;28;20131;-67
2022/01/31 05:49:18;;;;;;;8.30;0.98;;;;;;;;;;5050209;28;20049;-67
2022/01/31 05:51:50;;;;;;;4.80;0.57;;;;;;;;;;5049574;28;20044;-67
2022/01/31 05:54:16;;;;;;;6.05;0.70;;;;;;;;;;5049704;28;20136;-67
2022/01/31 05:56:43;;;;;;;6.85;0.90;;;;;;;;;;5050457;28;20116;-67
2022/01/31 05:59:10;;;;;;;5.60;1.00;;;;;;;;;;5049514;28;20048;-67
2022/01/31 06:01:38;;;;;;;3.20;0.60;;;;;;;;;;5048849;28;20480;-67
2022/01/31 06:04:05;;;;;;;6.57;0.90;;;;;;;;;;5049835;28;20126;-67
2022/01/31 06:06:31;;;;;;;5.55;0.70;;;;;;;;;;5049259;28;20044;-67
2022/01/31 06:08:57;;;;;;;9.52;1.10;;;;;;;;;;5048813;28;20067;-67
2022/01/31 06:11:23;;;;;;;4.50;0.68;;;;;;;;;;5049899;28;20037;-67
2022/01/31 06:13:50;;;;;;;3.83;0.70;;;;;;;;;;5049077;28;20107;-67
2022/01/31 06:16:16;;;;;;;6.32;1.20;;;;;;;;;;5049731;28;20055;-67
2022/01/31 06:18:42;;;;;;;8.63;1.27;;;;;;;;;;5050340;28;20048;-67
2022/01/31 06:21:08;;;;;;;10.75;1.67;;;;;;;;;;5049219;28;20574;-67
2022/01/31 06:23:34;;;;;;;12.80;1.90;;;;;;;;;;5049800;28;20036;-67
2022/01/31 06:26:00;;;;;;;10.18;1.75;;;;;;;;;;5057383;28;20048;-67
2022/01/31 06:28:26;;;;;;;11.45;1.80;;;;;;;;;;5069224;28;20044;-67
2022/01/31 06:30:52;;;;;;;12.50;1.83;;;;;;;;;;5069960;28;20036;-67
2022/01/31 06:33:18;;;;;;;9.38;1.48;;;;;;;;;;5069246;28;20098;-67
2022/01/31 06:35:44;;;;;;;16.65;2.00;;;;;;;;;;5069313;28;20501;-67
2022/01/31 06:38:10;;;;;;;13.50;1.63;;;;;;;;;;5069811;28;20040;-67
2022/01/31 06:40:36;;;;;;;11.38;1.90;;;;;;;;;;5070505;28;20463;-67
2022/01/31 06:43:02;;;;;;;11.05;1.63;;;;;;;;;;5073570;28;20036;-67
2022/01/31 06:45:28;;;;;;;19.33;2.10;;;;;;;;;;5072664;28;20048;-67
2022/01/31 06:47:54;;;;;;;15.13;2.08;;;;;;;;;;5069798;28;20048;-66
2022/01/31 06:50:20;;;;;;;14.25;2.67;;;;;;;;;;5072551;28;20062;-66
2022/01/31 06:52:50;;;;;;;13.30;2.30;;;;;;;;;;5072163;28;20079;-67
2022/01/31 06:55:19;;;;;;;22.88;2.38;;;;;;;;;;5073083;28;20407;-67
2022/01/31 06:57:46;;;;;;;12.30;2.13;;;;;;;;;;5071989;28;20093;-67
2022/01/31 07:00:13;;;;;;;13.90;2.03;;;;;;;;;;5072693;28;20074;-66
2022/01/31 07:02:39;;;;;;;16.02;1.92;;;;;;;;;;5073099;28;20044;-67
2022/01/31 07:05:06;;;;;;;19.08;1.85;;;;;;;;;;5072922;28;20086;-66
2022/01/31 07:07:32;;;;;;;23.15;2.83;;;;;;;;;;5072222;28;20431;-66
2022/01/31 07:10:01;;;;;;;11.18;1.83;;;;;;;;;;5072906;28;20175;-66
2022/01/31 07:12:33;;;;;;;9.90;1.75;;;;;;;;;;5072796;28;20431;-67
2022/01/31 07:14:59;;;;;;;12.13;1.73;;;;;;;;;;5071811;28;20392;-68
2022/01/31 07:17:25;;;;;;;9.93;1.30;;;;;;;;;;5071143;28;20407;-67
2022/01/31 07:19:51;;;;;;;13.57;2.00;;;;;;;;;;5070809;28;20043;-64
2022/01/31 07:22:19;;;;;;;11.40;1.42;;;;;;;;;;5070980;28;20044;-67
2022/01/31 07:24:49;;;;;;;8.43;1.15;;;;;;;;;;5072428;28;20055;-67
2022/01/31 07:27:15;;;;;;;15.82;2.30;;;;;;;;;;5072308;28;20143;-66
2022/01/31 07:29:41;;;;;;;11.57;2.00;;;;;;;;;;5069726;28;20063;-66
2022/01/31 07:32:11;;;;;;;12.95;1.50;;;;;;;;;;5090180;28;20044;-66
2022/01/31 07:34:40;;;;;;;6.63;1.10;;;;;;;;;;5053848;28;20044;-67
2022/01/31 07:37:06;;;;;;;7.68;1.23;;;;;;;;;;5070449;28;20040;-67
2022/01/31 07:39:33;;;;;;;7.18;1.40;;;;;;;;;;5070717;28;20569;-66
2022/01/31 07:41:59;;;;;;;6.35;1.33;;;;;;;;;;5072548;28;20367;-66
2022/01/31 07:44:25;;;;;;;9.70;1.58;;;;;;;;;;5072132;28;20040;-64
2022/01/31 07:46:52;;;;;;;11.02;1.30;;;;;;;;;;5072100;28;20036;-65
2022/01/31 07:49:21;;;;;;;11.77;2.05;;;;;;;;;;5072194;28;20094;-64
2022/01/31 07:51:47;;;;;;;14.60;1.65;;;;;;;;;;5070445;28;20048;-66
2022/01/31 07:54:13;;;;;;;10.50;2.05;;;;;;;;;;5071516;28;20039;-64
2022/01/31 07:56:39;;;;;;;10.90;2.20;;;;;;;;;;5071392;28;20402;-63
2022/01/31 07:59:05;;;;;;;13.02;1.85;;;;;;;;;;5071563;28;20497;-64
2022/01/31 08:01:31;;;;;;;10.73;2.05;;;;;;;;;;5082801;28;20778;-64
2022/01/31 08:03:57;;;;;;;12.52;2.42;;;;;;;;;;5071930;28;20044;-62
2022/01/31 08:06:23;;;;;;;12.75;1.77;;;;;;;;;;5061395;28;20374;-61
2022/01/31 08:08:50;;;;;;;13.82;2.55;;;;;;;;;;5071487;28;20120;-64
2022/01/31 08:11:17;;;;;;;14.07;1.67;;;;;;;;;;5072500;28;20098;-64
2022/01/31 08:13:44;;;;;;;11.13;1.80;;;;;;;;;;5070306;28;20036;-67
2022/01/31 08:16:10;;;;;;;15.35;2.78;;;;;;;;;;5071176;28;20886;-67
2022/01/31 08:18:37;;;;;;;14.40;2.42;;;;;;;;;;5070209;28;20048;-67
2022/01/31 08:21:03;;;;;;;14.07;2.80;;;;;;;;;;5071451;28;20863;-66
2022/01/31 08:23:30;;;;;;;12.02;3.20;;;;;;;;;;5072376;28;20039;-66
2022/01/31 08:25:59;;;;;;;15.85;2.10;;;;;;;;;;5056127;28;20053;-67
2022/01/31 08:28:34;;;;;;;15.18;2.13;;;;;;;;;;5071360;28;20130;-68
2022/01/31 08:31:16;;;;;;;13.70;2.78;;;;;;;;;;5068982;28;20611;-66
2022/01/31 08:33:50;;;;;;;13.85;2.10;;;;;;;;;;5072749;28;20049;-67
2022/01/31 08:36:17;;;;;;;18.02;2.97;;;;;;;;;;5069948;28;20521;-67
2022/01/31 08:38:44;;;;;;;19.30;3.60;;;;;;;;;;5071037;28;20036;-68
2022/01/31 08:41:12;;;;;;;16.35;2.40;;;;;;;;;;5080467;28;20024;-67
2022/01/31 08:43:39;;;;;;;14.95;2.90;;;;;;;;;;5070750;28;20463;-67
2022/01/31 08:46:06;;;;;;;21.90;2.70;;;;;;;;;;5070814;28;20122;-68
2022/01/31 08:48:32;;;;;;;15.60;3.00;;;;;;;;;;5070796;28;20048;-66
2022/01/31 08:50:58;;;;;;;19.23;2.80;;;;;;;;;;5070291;28;20174;-67
2022/01/31 08:53:25;;;;;;;21.92;2.67;;;;;;;;;;5052248;28;20077;-65
2022/01/31 08:55:52;;;;;;;17.17;2.75;;;;;;;;;;5070667;28;20049;-65
2022/01/31 08:58:19;;;;;;;11.90;2.47;;;;;;;;;;5067849;28;20044;-65
2022/01/31 09:00:49;;;;;;;16.90;2.45;;;;;;;;;;5067425;28;20043;-67
2022/01/31 09:05:41;;;;;;;21.92;2.40;;;;;;;;;;5071993;28;20433;-68
2022/01/31 09:08:08;;;;;;;13.88;2.55;;;;;;;;;;5069120;28;20044;-68
2022/01/31 09:10:34;;;;;;;9.40;1.88;;;;;;;;;;5067655;28;20050;-66
2022/01/31 09:13:00;;;;;;;13.20;1.80;;;;;;;;;;5081771;28;20067;-67
2022/01/31 09:15:27;;;;;;;10.57;1.40;;;;;;;;;;5073097;28;20050;-65
2022/01/31 09:17:53;;;;;;;7.38;1.40;;;;;;;;;;5071240;28;20460;-66
2022/01/31 09:20:19;;;;;;;7.18;1.30;;;;;;;;;;5068901;28;20047;-67
2022/01/31 09:22:45;;;;;;;8.73;2.40;;;;;;;;;;5072189;28;20064;-67
2022/01/31 09:25:14;;;;;;;10.00;2.88;;;;;;;;;;5070422;28;20483;-66
2022/01/31 09:27:40;;;;;;;8.23;1.33;;;;;;;;;;5071824;28;20060;-66
2022/01/31 09:30:08;;;;;;;10.90;1.60;;;;;;;;;;5080503;28;20051;-66
2022/01/31 09:32:34;;;;;;;8.57;1.60;;;;;;;;;;5072120;28;20487;-66
2022/01/31 09:35:00;;;;;;;10.38;1.20;;;;;;;;;;5068679;28;20043;-66
2022/01/31 09:37:27;;;;;;;11.27;1.50;;;;;;;;;;5070734;28;20036;-67
2022/01/31 09:39:53;;;;;;;8.68;1.92;;;;;;;;;;5070477;28;20064;-67
2022/01/31 09:42:36;;;;;;;7.75;1.30;;;;;;;;;;5052494;28;20036;-66
2022/01/31 09:45:12;;;;;;;10.95;1.45;;;;;;;;;;5068704;28;20044;-66
2022/01/31 09:50:27;;;;;;;8.00;1.50;;;;;;;;;;5068086;28;20071;-66
2022/01/31 09:52:53;;;;;;;8.70;1.58;;;;;;;;;;5059052;28;20048;-67
2022/01/31 09:55:20;;;;;;;11.25;1.38;;;;;;;;;;5070215;28;20075;-67
2022/01/31 09:57:48;;;;;;;7.65;1.30;;;;;;;;;;5068813;28;20051;-67
2022/01/31 10:00:14;;;;;;;6.13;1.35;;;;;;;;;;5071067;28;20044;-67
2022/01/31 10:03:02;;;;;;;5.40;1.52;;;;;;;;;;5070239;28;20586;-65
2022/01/31 10:05:29;;;;;;;9.07;1.20;;;;;;;;;;5066006;28;20051;-65
2022/01/31 10:07:55;;;;;;;17.27;2.15;;;;;;;;;;5072864;28;20036;-66
2022/01/31 10:10:24;;;;;;;8.38;1.48;;;;;;;;;;5069812;28;20048;-66
2022/01/31 10:18:03;;;;;;;7.88;1.30;;;;;;;;;;5070544;28;20052;-65
2022/01/31 10:20:30;;;;;;;8.85;1.10;;;;;;;;;;5074661;28;20143;-63
2022/01/31 10:23:05;;;;;;;12.52;1.38;;;;;;;;;;5076592;28;21550;-64
2022/01/31 10:25:33;;;;;;;7.18;0.77;;;;;;;;;;5073068;28;20048;-63
2022/01/31 10:27:59;;;;;;;7.32;1.15;;;;;;;;;;5073975;28;20052;-64
2022/01/31 10:30:26;;;;;;;8.35;1.17;;;;;;;;;;5074998;28;20050;-63
2022/01/31 10:32:54;;;;;;;5.13;1.30;;;;;;;;;;5073184;28;20823;-63
2022/01/31 10:35:22;;;;;;;5.35;1.15;;;;;;;;;;5074283;28;20036;-63
2022/01/31 10:37:49;;;;;;;5.25;1.00;;;;;;;;;;5073388;28;20127;-64
2022/01/31 10:54:42;;;;;;;5.35;1.10;;;;;;;;;;5081306;28;20364;-63
2022/01/31 10:57:03;;;;;;;9.20;1.00;;;;;;;;;;5070577;28;20434;-64
2022/01/31 10:59:35;;;;;;;7.55;1.20;;;;;;;;;;5073051;28;20048;-63
2022/01/31 11:02:02;;;;;;;10.13;1.73;;;;;;;;;;5073303;28;20044;-64
2022/01/31 11:04:35;;;;;;;15.45;1.58;;;;;;;;;;5072577;28;20041;-64
2022/01/31 11:07:03;;;;;;;12.43;1.17;;;;;;;;;;5070048;28;20105;-64
2022/01/31 11:09:31;;;;;;;9.23;1.73;;;;;;;;;;5072458;28;20048;-64
2022/01/31 11:11:57;;;;;;;11.43;1.67;;;;;;;;;;5076002;28;20044;-65
2022/01/31 11:14:23;;;;;;;17.73;1.73;;;;;;;;;;5072326;28;20094;-64
2022/01/31 11:16:50;;;;;;;16.33;2.15;;;;;;;;;;5072567;28;20660;-64
2022/01/31 11:19:23;;;;;;;14.68;2.08;;;;;;;;;;5053402;28;20040;-65
2022/01/31 11:21:50;;;;;;;8.82;1.55;;;;;;;;;;5072346;28;20437;-64
2022/01/31 11:24:25;;;;;;;12.23;1.85;;;;;;;;;;5070883;28;20126;-64
2022/01/31 11:26:54;;;;;;;18.48;2.92;;;;;;;;;;5070129;28;20745;-64
2022/01/31 11:29:21;;;;;;;17.75;2.22;;;;;;;;;;5070464;28;20051;-63
2022/01/31 11:31:47;;;;;;;11.68;1.60;;;;;;;;;;5071427;28;20494;-63
2022/01/31 11:34:14;;;;;;;10.13;1.67;;;;;;;;;;5071254;28;20052;-63
2022/01/31 11:36:40;;;;;;;17.45;2.13;;;;;;;;;;5055138;28;20076;-63
2022/01/31 11:39:08;;;;;;;14.15;2.58;;;;;;;;;;5071671;28;20526;-63
2022/01/31 11:41:35;;;;;;;24.23;2.75;;;;;;;;;;5072682;28;20514;-63
2022/01/31 11:44:20;;;;;;;15.50;1.73;;;;;;;;;;5072496;28;20390;-63
2022/01/31 11:46:46;;;;;;;20.50;2.15;;;;;;;;;;5071722;28;20048;-63
2022/01/31 11:49:13;;;;;;;13.07;2.50;;;;;;;;;;5071796;28;20044;-63
2022/01/31 11:51:50;;;;;;;10.00;2.10;;;;;;;;;;5072612;28;20525;-63
2022/01/31 11:54:22;;;;;;;14.45;1.77;;;;;;;;;;5071899;28;20049;-63
2022/01/31 11:56:51;;;;;;;17.15;2.42;;;;;;;;;;5072478;28;20102;-63
2022/01/31 11:59:20;;;;;;;13.45;2.33;;;;;;;;;;5072410;28;20028;-64
2022/01/31 12:01:46;;;;;;;18.48;2.22;;;;;;;;;;5071821;28;20037;-64
2022/01/31 12:04:13;;;;;;;11.55;1.88;;;;;;;;;;5071556;28;20132;-63
2022/01/31 12:06:39;;;;;;;9.63;1.58;;;;;;;;;;5078667;28;20094;-64
2022/01/31 12:09:07;;;;;;;16.73;2.55;;;;;;;;;;5069038;28;20090;-64
2022/01/31 12:11:52;;;;;;;10.30;1.60;;;;;;;;;;5079700;28;20072;-64
2022/01/31 12:14:24;;;;;;;12.13;1.63;;;;;;;;;;5071534;28;20128;-63
2022/01/31 12:20:02;;;;;;;9.25;1.63;;;;;;;;;;5065310;28;20073;-64
2022/01/31 12:22:44;;;;;;;9.85;1.27;;;;;;;;;;5078760;28;20119;-62
2022/01/31 12:25:33;;;;;;;13.50;2.35;;;;;;;;;;5068868;28;20044;-62
2022/01/31 12:28:19;;;;;;;8.15;1.00;;;;;;;;;;5069015;28;20060;-63
2022/01/31 12:30:45;;;;;;;7.78;1.50;;;;;;;;;;5071050;28;20036;-63
2022/01/31 12:33:31;;;;;;;10.48;1.48;;;;;;;;;;5070823;28;20105;-64
2022/01/31 12:35:57;;;;;;;9.88;1.92;;;;;;;;;;5071859;28;20041;-64
2022/01/31 12:38:33;;;;;;;15.00;1.23;;;;;;;;;;5073006;28;20395;-63
2022/01/31 12:41:05;;;;;;;9.63;1.33;;;;;;;;;;5068229;28;20107;-63
2022/01/31 12:46:09;;;;;;;9.07;1.63;;;;;;;;;;5072973;28;20279;-64
2022/01/31 12:48:36;;;;;;;9.70;1.60;;;;;;;;;;5071005;28;20054;-63
2022/01/31 12:51:04;;;;;;;18.05;3.65;;;;;;;;;;5070270;28;20068;-62
2022/01/31 12:53:38;;;;;;;12.05;2.03;;;;;;;;;;5070714;28;20044;-63
2022/01/31 12:56:24;;;;;;;9.02;1.30;;;;;;;;;;5070554;28;20040;-63
2022/01/31 12:58:50;;;;;;;10.48;2.22;;;;;;;;;;5074011;28;20040;-62
2022/01/31 13:01:19;;;;;;;7.10;1.85;;;;;;;;;;5071080;28;20037;-64
2022/01/31 13:03:47;;;;;;;15.20;2.05;;;;;;;;;;5075150;28;20032;-64
2022/01/31 13:06:28;;;;;;;9.60;1.33;;;;;;;;;;5071145;28;20041;-63
2022/01/31 13:08:54;;;;;;;15.25;2.25;;;;;;;;;;5072598;28;20046;-64
2022/01/31 13:11:21;;;;;;;13.55;1.25;;;;;;;;;;5068546;28;20036;-63
2022/01/31 13:13:47;;;;;;;14.40;2.75;;;;;;;;;;5069560;28;20033;-62
2022/01/31 13:16:13;;;;;;;12.55;1.60;;;;;;;;;;5070305;28;20033;-63
2022/01/31 13:18:40;;;;;;;14.40;1.88;;;;;;;;;;5071007;28;20044;-64
2022/01/31 13:21:09;;;;;;;14.63;1.70;;;;;;;;;;5066164;28;20032;-63
2022/01/31 13:23:35;;;;;;;16.00;2.47;;;;;;;;;;5074324;28;20039;-63
2022/01/31 13:26:04;;;;;;;14.48;2.30;;;;;;;;;;5071031;28;20059;-64
2022/01/31 13:28:30;;;;;;;9.13;1.73;;;;;;;;;;5071042;28;20091;-63
2022/01/31 13:31:09;;;;;;;13.20;1.70;;;;;;;;;;5069468;28;20040;-63
2022/01/31 13:33:45;;;;;;;11.45;2.00;;;;;;;;;;5059783;28;20132;-62
2022/01/31 13:36:11;;;;;;;9.85;1.95;;;;;;;;;;5070915;28;20123;-62
2022/01/31 13:38:37;;;;;;;14.68;2.40;;;;;;;;;;5070236;28;20530;-64
2022/01/31 13:41:04;;;;;;;18.60;2.92;;;;;;;;;;5074551;28;20059;-67
2022/01/31 13:43:33;;;;;;;12.50;2.50;;;;;;;;;;5076634;28;20117;-62
2022/01/31 13:48:45;;;;;;;15.57;2.10;;;;;;;;;;5070631;28;20041;-63
2022/01/31 13:51:14;;;;;;;15.20;2.10;;;;;;;;;;5061724;28;20475;-62
2022/01/31 13:53:42;;;;;;;13.98;2.17;;;;;;;;;;5069212;28;20044;-64
2022/01/31 13:56:09;;;;;;;15.70;2.30;;;;;;;;;;5074460;28;20036;-63
2022/01/31 13:58:37;;;;;;;14.60;2.55;;;;;;;;;;5079909;28;20085;-62
2022/01/31 14:01:04;;;;;;;13.63;1.88;;;;;;;;;;5072465;28;20048;-62
2022/01/31 14:03:31;;;;;;;19.17;2.35;;;;;;;;;;5070624;28;20100;-63
2022/01/31 14:06:01;;;;;;;20.95;2.65;;;;;;;;;;5070757;28;20040;-63
2022/01/31 14:08:30;;;;;;;14.25;2.58;;;;;;;;;;5070405;28;20158;-63
2022/01/31 14:11:23;;;;;;;18.65;2.53;;;;;;;;;;5071059;28;20050;-64
2022/01/31 14:13:53;;;;;;;17.95;2.80;;;;;;;;;;5058264;28;20087;-63
2022/01/31 14:16:34;;;;;;;17.00;2.67;;;;;;;;;;5069892;28;20142;-65
2022/01/31 14:19:05;;;;;;;20.50;2.90;;;;;;;;;;5073662;28;20037;-63
2022/01/31 14:21:31;;;;;;;14.95;2.40;;;;;;;;;;5071430;28;20700;-63
2022/01/31 14:23:59;;;;;;;19.13;2.85;;;;;;;;;;5068818;28;20036;-62
2022/01/31 14:26:40;;;;;;;19.17;2.95;;;;;;;;;;5069943;28;20079;-63
2022/01/31 14:29:10;;;;;;;11.73;2.42;;;;;;;;;;5070042;28;20068;-62
2022/01/31 14:31:41;;;;;;;13.85;2.60;;;;;;;;;;5068993;28;20045;-64
2022/01/31 14:34:11;;;;;;;14.43;2.70;;;;;;;;;;5070452;28;20052;-66
2022/01/31 14:36:37;;;;;;;15.18;2.70;;;;;;;;;;5069805;28;20040;-64
2022/01/31 14:47:47;;;;;;;12.88;2.05;;;;;;;;;;5084188;28;20051;-64
2022/01/31 14:50:15;;;;;;;14.93;2.92;;;;;;;;;;5073713;28;20557;-61
2022/01/31 14:52:41;;;;;;;7.25;2.42;;;;;;;;;;5071512;28;20040;-62
2022/01/31 14:55:08;;;;;;;13.48;1.83;;;;;;;;;;5069708;28;20130;-63
2022/01/31 14:57:35;;;;;;;16.38;2.85;;;;;;;;;;5069858;28;20056;-62
2022/01/31 15:00:01;;;;;;;11.65;1.80;;;;;;;;;;5067132;28;20064;-62
2022/01/31 15:02:30;;;;;;;13.50;1.50;;;;;;;;;;5071532;28;20086;-62
2022/01/31 15:04:56;;;;;;;8.68;2.20;;;;;;;;;;5073120;28;20570;-64
2022/01/31 15:07:22;;;;;;;9.43;1.50;;;;;;;;;;5073177;28;20040;-63
2022/01/31 15:09:48;;;;;;;9.40;1.40;;;;;;;;;;5076392;28;20060;-63
2022/01/31 15:12:14;;;;;;;9.00;1.70;;;;;;;;;;5068328;28;20036;-62
2022/01/31 15:14:41;;;;;;;11.23;1.80;;;;;;;;;;5074825;28;20398;-62
2022/01/31 15:17:08;;;;;;;12.90;1.50;;;;;;;;;;5074550;28;20128;-62
2022/01/31 15:19:34;;;;;;;8.13;1.95;;;;;;;;;;5080928;28;20479;-62
2022/01/31 15:22:00;;;;;;;9.65;1.70;;;;;;;;;;5071027;28;20044;-61